Terminal Aerodrome Forecast
Issued by NWS

Home | Current Version | Previous Version | Text Only | Print | Product List | Glossary On
Versions: 1 2 3 4 5 6 7 8 9 10 11 12 13 14 15
740
FTUS44 KTSA 261932 AAA
TAFMLC
TAF AMD
KMLC 261932Z 2620/2718 VRB04KT P6SM VCTS SCT040CB BKN250
      TEMPO 2620/2624 VRB15G25KT 3SM -TSRA BKN025CB
     FM270100 10003KT P6SM BKN080
     FM271500 VRB03KT P6SM SCT035 BKN250=

USA.gov is the U.S. government's official web portal to all federal, state and local government web resources and services.